• Join FlightAware (Why Join?)
  • Login
  • US Flag 
03:24AM EDT


 

Airport Tracker/Info


-or-


 

Live Flight TrackerFlight Track Log ✈ RPA3882 ✈ 19-Jun-2013 ✈ KDEN - KRAP

Flight Track Log - Related Links

Times and Time Zones

All times are in EDT time to prevent confusion due to time zone crossing. See the RPA3882 flight status page for this flight to view local times or setup timezone preferences in your user account.

Time Position Orientation Groundspeed Altitude Reporting Facility
EDT Latitude Longitude Course Direction KTS MPH feet Rate Location/Type
12:32AM 39.8833 -104.5833 46° Northeast 203 234 6,900  Level Denver TRACON
12:33AM 39.9333 -104.5167 46° Northeast 236 272 8,500 1,620 Climbing Denver TRACON
12:34AM 39.9636 -104.5236 350° North 220 253 9,600 1,680 Climbing Denver Center
12:35AM 40.0236 -104.5286 356° North 217 250 11,400 1,620 Climbing Denver Center
12:36AM 40.0919 -104.5333 357° North 227 261 12,900 1,380 Climbing Denver Center
12:37AM 40.1586 -104.5361 358° North 241 277 14,300 1,320 Climbing Denver Center
12:38AM 40.2283 -104.5403 357° North 248 285 15,700 1,320 Climbing Denver Center
12:39AM 40.2981 -104.5417 359° North 250 288 17,000 660 Climbing Denver Center
12:40AM 40.3833 -104.5475 357° North 286 329 17,100 360 Climbing Denver Center
12:41AM 40.4719 -104.5500 359° North 316 364 17,800 900 Climbing Denver Center
12:42AM 40.5569 -104.5350 North 311 358 19,000 1,080 Climbing Denver Center
12:43AM 40.6392 -104.5008 18° North 314 361 20,100 1,020 Climbing Denver Center
12:44AM 40.7200 -104.4406 29° Northeast 311 358 21,100 840 Climbing Denver Center
12:45AM 40.7875 -104.3850 32° Northeast 309 356 21,900 840 Climbing Denver Center
12:46AM 40.8614 -104.3208 33° Northeast 316 364 22,900 900 Climbing Denver Center
12:47AM 40.9361 -104.2553 34° Northeast 322 371 23,800 840 Climbing Denver Center
12:48AM 41.0142 -104.1797 36° Northeast 320 368 24,700 540 Climbing Denver Center
12:49AM 41.0831 -104.1106 37° Northeast 325 374 25,000 120 Climbing Denver Center
12:50AM 41.1694 -104.0258 36° Northeast 339 390 25,000  Level Denver Center
12:51AM 41.2533 -103.9564 32° Northeast 361 415 25,000  Level Denver Center
12:52AM 41.3567 -103.8878 26° Northeast 371 427 25,000  Level Denver Center
12:53AM 41.4450 -103.8314 26° Northeast 370 426 25,000  Level Denver Center
12:54AM 41.5319 -103.7700 28° Northeast 369 425 25,000  Level Denver Center
12:55AM 41.6350 -103.7008 27° Northeast 372 428 25,000  Level Denver Center
12:56AM 41.7222 -103.6403 27° Northeast 371 427 25,000  Level Denver Center
12:57AM 41.7897 -103.5769 35° Northeast 372 428 25,000  Level Denver Center
12:58AM 41.8961 -103.4742 36° Northeast 369 425 25,000  Level Denver Center
12:59AM 41.9764 -103.3986 35° Northeast 369 425 25,000  Level Denver Center
01:00AM 42.0694 -103.3089 36° Northeast 370 426 25,000  Level Denver Center
01:01AM 42.1467 -103.2314 37° Northeast 366 421 25,000  Level Denver Center
01:02AM 42.2253 -103.1547 36° Northeast 364 419 25,000  Level Denver Center
01:03AM 42.3183 -103.0667 35° Northeast 368 423 25,000  Level Denver Center
01:04AM 42.3975 -102.9919 35° Northeast 365 420 25,000  Level Denver Center
01:05AM 42.4800 -102.9219 32° Northeast 366 421 25,000  Level Denver Center
01:06AM 42.5764 -102.8481 29° Northeast 359 413 25,000  Level Denver Center
01:07AM 42.6617 -102.7861 28° Northeast 361 415 25,000  Level Denver Center
01:08AM 42.7453 -102.7292 27° Northeast 354 407 25,000  Level Denver Center
01:09AM 42.8508 -102.6842 17° North 355 409 25,000  Level Denver Center
01:10AM 42.9417 -102.6481 16° North 356 410 25,000  Level Denver Center
01:11AM 43.0336 -102.6106 17° North 359 413 25,000  Level Denver Center
01:12AM 43.1375 -102.5417 26° Northeast 372 428 25,000  Level Denver Center
01:13AM 43.2261 -102.4803 27° Northeast 374 430 25,000  Level Denver Center
01:14AM 43.3175 -102.4233 24° Northeast 375 432 25,000 -300 Level Denver Center
01:15AM 43.4250 -102.3558 25° Northeast 380 437 24,500 -720 Descending Denver Center
01:16AM 43.5044 -102.2942 29° Northeast 345 397 23,600 -960 Descending Denver Center
01:17AM 43.5825 -102.2311 30° Northeast 339 390 22,600 -1,080 Descending Denver Center
01:18AM 43.6786 -102.1897 17° North 339 390 21,500 -1,080 Descending Denver Center
01:19AM 43.7175 -102.2125 337° Northwest 324 373 21,000 -1,140 Descending Denver Center
01:20AM 43.7836 -102.3222 310° West 316 364 19,600 -1,320 Descending Denver Center
01:21AM 43.8247 -102.4367 297° West 316 364 18,200 -1,500 Descending Denver Center
01:22AM 43.8586 -102.5328 296° West 314 361 16,800 -1,560 Descending Denver Center
01:23AM 43.8961 -102.6397 296° West 304 350 15,300 -1,440 Descending Denver Center
01:24AM 43.9131 -102.7378 284° West 272 313 13,900 -1,500 Descending Denver Center
01:25AM 43.9414 -102.8414 291° West 272 313 12,300 -1,680 Descending Denver Center
01:26AM 43.9753 -102.9261 299° West 259 298 10,600 -1,680 Descending Denver Center
01:27AM 43.9969 -103.0289 286° West 269 310 8,900 -1,440 Descending Denver Center
01:28AM 44.0228 -103.1189 292° West 258 297 7,700 -1,380 Descending Denver Center
01:29AM 44.0833 -103.1694 329° Northwest 248 285 6,200 -1,140 Descending Denver Center
01:30AM 44.1158 -103.1161 50° Northeast 187 215 5,500 -900 Descending Denver Center
01:31AM 44.0958 -103.0953 143° Southeast 89 102 4,500 -900 Descending Denver Center
01:32AM 44.0725 -103.0811 156° South 85 98 3,700 -720 Descending Denver Center